createdAt,value
2023-03-11T00:03:00.429Z,27.17
2023-03-11T00:08:04.827Z,33.08
2023-03-11T00:18:11.706Z,30.35
2023-03-11T00:23:16.216Z,31.95
2023-03-11T00:28:19.293Z,35.50
2023-03-11T00:33:22.291Z,31.42
2023-03-11T00:38:25.234Z,30.30
2023-03-11T00:43:28.452Z,32.38
2023-03-11T00:48:31.439Z,31.20
2023-03-11T00:53:34.551Z,31.98
2023-03-11T00:58:37.458Z,31.80
2023-03-11T01:03:41.725Z,31.98
2023-03-11T01:08:46.550Z,31.55
2023-03-11T01:13:49.409Z,34.53
2023-03-11T01:18:52.299Z,33.08
2023-03-11T01:23:55.353Z,31.05
2023-03-11T01:28:58.058Z,34.55
2023-03-11T01:34:00.872Z,38.63
2023-03-11T01:39:04.589Z,35.72
2023-03-11T01:44:07.993Z,32.78
2023-03-11T01:49:13.513Z,36.20
2023-03-11T01:54:24.585Z,35.50
2023-03-11T01:59:38.214Z,37.25
2023-03-11T02:04:42.611Z,33.00
2023-03-11T02:09:45.600Z,34.38
2023-03-11T02:14:51.810Z,31.55
2023-03-11T02:20:12.624Z,29.63
2023-03-11T02:25:16.417Z,38.63
2023-03-11T02:30:22.693Z,44.38
2023-03-11T02:35:26.252Z,38.13
2023-03-11T02:40:31.158Z,36.30
2023-03-11T02:45:35.054Z,38.05
2023-03-11T02:50:38.525Z,35.60
2023-03-11T02:55:41.727Z,33.47
2023-03-11T03:00:44.526Z,31.65
2023-03-11T03:05:48.386Z,33.00
2023-03-11T03:10:51.607Z,34.65
2023-03-11T03:15:55.208Z,37.83
2023-03-11T03:20:58.141Z,35.10
2023-03-11T03:26:01.848Z,37.50
2023-03-11T03:31:06.885Z,36.53
2023-03-11T03:36:14.655Z,37.38
2023-03-11T03:41:21.413Z,37.20
2023-03-11T03:46:25.809Z,37.55
2023-03-11T03:51:32.595Z,36.85
2023-03-11T03:56:44.405Z,33.10
2023-03-11T04:01:48.125Z,33.55
2023-03-11T04:06:52.069Z,35.78
2023-03-11T04:11:55.599Z,35.15
2023-03-11T04:16:59.001Z,35.22
2023-03-11T04:22:02.994Z,40.45
2023-03-11T04:27:06.294Z,38.95
2023-03-11T04:32:10.557Z,39.90
2023-03-11T04:37:15.363Z,44.92
2023-03-11T04:42:19.526Z,46.25
2023-03-11T04:47:23.596Z,50.47
2023-03-11T04:52:27.289Z,53.38
2023-03-11T04:57:30.684Z,51.70
2023-03-11T05:02:34.515Z,50.47
2023-03-11T05:07:38.460Z,55.85
2023-03-11T05:12:42.774Z,58.33
2023-03-11T05:17:46.904Z,58.13
2023-03-11T05:22:50.135Z,49.30
2023-03-11T05:27:53.609Z,46.63
2023-03-11T05:32:56.797Z,39.75
2023-03-11T05:38:00.704Z,41.42
2023-03-11T05:43:06.207Z,41.80
2023-03-11T05:48:14.114Z,30.33
2023-03-11T05:53:17.067Z,32.88
2023-03-11T05:58:20.052Z,32.08
2023-03-11T06:03:24.783Z,31.55
2023-03-11T06:08:28.034Z,28.17
2023-03-11T06:13:31.103Z,33.13
2023-03-11T06:18:34.269Z,40.45
2023-03-11T06:23:37.314Z,39.70
2023-03-11T06:28:40.251Z,39.17
2023-03-11T06:33:43.759Z,34.95
2023-03-11T06:38:47.006Z,33.58
2023-03-11T06:43:51.048Z,27.05
2023-03-11T06:48:54.917Z,30.20
2023-03-11T06:53:59.638Z,37.47
2023-03-11T06:59:03.922Z,32.13
2023-03-11T07:04:11.028Z,28.60
2023-03-11T07:09:17.151Z,24.80
2023-03-11T07:14:22.995Z,27.90
2023-03-11T07:19:30.130Z,26.77
2023-03-11T07:24:33.111Z,27.10
2023-03-11T07:29:35.908Z,31.95
2023-03-11T07:34:38.794Z,23.73
2023-03-11T07:39:41.921Z,27.85
2023-03-11T07:44:44.874Z,25.02
2023-03-11T07:49:48.004Z,26.92
2023-03-11T07:54:51.342Z,31.40
2023-03-11T07:59:54.283Z,32.08
2023-03-11T08:04:57.571Z,37.50
2023-03-11T08:10:00.922Z,38.70
2023-03-11T08:15:04.209Z,28.17
2023-03-11T08:20:09.253Z,35.00
2023-03-11T08:25:12.292Z,38.85
2023-03-11T08:30:15.812Z,40.38
2023-03-11T08:35:18.762Z,36.53
2023-03-11T08:40:21.740Z,40.35
2023-03-11T08:45:24.812Z,49.33
2023-03-11T08:50:27.978Z,46.88
2023-03-11T08:55:31.065Z,42.78
2023-03-11T09:00:34.093Z,52.05
2023-03-11T09:05:37.618Z,50.78
2023-03-11T09:10:40.492Z,59.25
2023-03-11T09:15:43.268Z,54.90
2023-03-11T09:20:46.694Z,53.85
2023-03-11T09:25:49.642Z,62.83
2023-03-11T09:30:52.712Z,56.17
2023-03-11T09:35:55.618Z,46.10
2023-03-11T09:41:04.437Z,54.15
2023-03-11T09:46:29.759Z,52.58
2023-03-11T09:51:38.522Z,53.50
2023-03-11T09:56:44.551Z,57.33
2023-03-11T10:01:51.132Z,53.35
2023-03-11T10:06:54.257Z,51.38
2023-03-11T10:12:09.263Z,56.33
2023-03-11T10:17:21.086Z,51.22
2023-03-11T10:22:47.338Z,44.03
2023-03-11T10:27:55.901Z,53.03
2023-03-11T10:33:22.012Z,52.13
2023-03-11T10:38:49.553Z,59.45
2023-03-11T10:44:03.547Z,55.03
2023-03-11T10:49:13.965Z,50.47
2023-03-11T10:54:22.896Z,50.33
2023-03-11T10:59:27.833Z,56.80
2023-03-11T11:04:36.247Z,43.58
2023-03-11T11:09:39.105Z,44.60
2023-03-11T11:14:52.952Z,38.70
2023-03-11T11:19:58.395Z,48.78
2023-03-11T11:25:01.336Z,49.28
2023-03-11T11:30:11.533Z,40.10
2023-03-11T11:35:17.166Z,43.63
2023-03-11T11:40:29.325Z,43.53
2023-03-11T11:45:40.959Z,46.03
2023-03-11T11:50:54.489Z,41.38
2023-03-11T11:55:57.542Z,43.55
2023-03-11T12:01:20.204Z,46.25
2023-03-11T12:06:39.549Z,40.15
2023-03-11T12:11:51.922Z,45.03
2023-03-11T12:17:03.899Z,51.83
2023-03-11T12:22:16.172Z,44.00
2023-03-11T12:27:35.517Z,38.17
2023-03-11T12:32:44.086Z,40.25
2023-03-11T12:37:55.532Z,38.42
2023-03-11T12:42:58.678Z,37.13
2023-03-11T12:48:30.952Z,34.38
2023-03-11T12:53:50.395Z,34.05
2023-03-11T12:59:15.442Z,37.00
2023-03-11T13:04:29.350Z,27.45
2023-03-11T13:09:32.168Z,27.42
2023-03-11T13:14:35.390Z,28.88
2023-03-11T13:19:48.316Z,24.30
2023-03-11T13:24:51.804Z,33.65
2023-03-11T13:30:10.616Z,32.78
2023-03-11T13:35:38.099Z,25.27
2023-03-11T13:40:46.314Z,26.48
2023-03-11T13:45:57.262Z,35.47
2023-03-11T13:51:00.142Z,25.40
2023-03-11T13:56:03.179Z,29.30
2023-03-11T14:01:07.107Z,31.27
2023-03-11T14:06:18.014Z,33.55
2023-03-11T14:11:32.182Z,29.95
2023-03-11T14:16:44.573Z,27.55
2023-03-11T14:21:52.155Z,32.63
2023-03-11T14:26:57.027Z,30.65
2023-03-11T14:32:00.131Z,29.55
2023-03-11T14:37:04.385Z,31.85
2023-03-11T14:47:49.686Z,24.08
2023-03-11T14:53:36.180Z,24.80
2023-03-11T14:59:01.628Z,28.40
2023-03-11T15:04:38.225Z,30.13
2023-03-11T15:09:42.205Z,24.73
2023-03-11T15:14:52.125Z,22.90
2023-03-11T15:19:59.041Z,25.35
2023-03-11T15:25:04.431Z,25.88
2023-03-11T15:30:21.226Z,30.38
2023-03-11T15:35:31.428Z,19.55
2023-03-11T15:45:49.444Z,16.27
2023-03-11T15:50:57.707Z,14.32
2023-03-11T15:56:14.034Z,18.73
2023-03-11T16:01:18.685Z,14.80
2023-03-11T16:06:24.900Z,13.13
2023-03-11T16:11:28.202Z,12.25
2023-03-11T16:16:32.530Z,13.70
2023-03-11T16:21:43.366Z,12.73
2023-03-11T16:26:46.441Z,17.17
2023-03-11T16:31:49.545Z,21.00
2023-03-11T16:36:52.261Z,24.45
2023-03-11T16:41:54.989Z,18.23
2023-03-11T16:46:57.893Z,19.77
2023-03-11T16:52:00.769Z,22.08
2023-03-11T16:57:03.640Z,14.70
2023-03-11T17:02:06.952Z,19.35
2023-03-11T17:07:10.098Z,19.98
2023-03-11T17:12:16.098Z,17.80
2023-03-11T17:17:20.157Z,17.20
2023-03-11T17:22:23.169Z,16.15
2023-03-11T17:27:26.562Z,16.55
2023-03-11T17:32:29.962Z,15.10
2023-03-11T17:37:33.257Z,13.93
2023-03-11T17:42:40.056Z,11.23
2023-03-11T17:47:43.621Z,14.35
2023-03-11T17:52:47.675Z,11.25
2023-03-11T17:57:50.461Z,12.05
2023-03-11T18:02:53.410Z,10.73
2023-03-11T18:07:56.240Z,16.23
2023-03-11T18:12:59.119Z,14.05
2023-03-11T18:18:02.372Z,11.70
2023-03-11T18:23:05.837Z,9.07
2023-03-11T18:28:08.905Z,9.68
2023-03-11T18:33:11.567Z,7.47
2023-03-11T18:38:14.462Z,10.35
2023-03-11T18:43:17.402Z,7.90
2023-03-11T18:48:20.178Z,7.68
2023-03-11T18:53:25.396Z,7.57
2023-03-11T18:58:28.946Z,6.95
2023-03-11T19:03:31.885Z,6.20
2023-03-11T19:08:36.051Z,5.28
2023-03-11T19:13:47.112Z,6.00
2023-03-11T19:18:51.830Z,6.97
2023-03-11T19:23:56.790Z,7.63
2023-03-11T19:28:59.596Z,8.95
2023-03-11T19:34:02.544Z,8.90
2023-03-11T19:39:05.712Z,9.80
2023-03-11T19:44:08.546Z,10.20
2023-03-11T19:49:11.495Z,11.23
2023-03-11T19:54:16.570Z,10.07
2023-03-11T19:59:19.612Z,8.18
2023-03-11T20:04:22.574Z,6.95
2023-03-11T20:09:25.614Z,8.25
2023-03-11T20:14:28.370Z,6.65
2023-03-11T20:19:31.247Z,9.90
2023-03-11T20:24:34.486Z,8.70
2023-03-11T20:29:37.366Z,6.72
2023-03-11T20:34:40.149Z,7.85
2023-03-11T20:39:43.185Z,7.43
2023-03-11T20:44:46.338Z,6.30
2023-03-11T20:49:49.347Z,7.00
2023-03-11T20:54:52.295Z,6.13
2023-03-11T20:59:55.123Z,7.38
2023-03-11T21:04:58.012Z,7.03
2023-03-11T21:10:02.575Z,6.90
2023-03-11T21:15:08.543Z,6.55
2023-03-11T21:20:12.302Z,7.97
2023-03-11T21:25:15.190Z,5.85
2023-03-11T21:30:18.419Z,6.90
2023-03-11T21:35:21.436Z,9.38
2023-03-11T21:40:24.458Z,10.52
2023-03-11T21:45:28.217Z,7.15
2023-03-11T21:50:33.310Z,8.43
2023-03-11T21:55:36.480Z,6.90
2023-03-11T22:00:40.426Z,5.35
2023-03-11T22:05:43.490Z,5.40
2023-03-11T22:10:46.658Z,13.85
2023-03-11T22:15:49.737Z,5.35
2023-03-11T22:20:52.835Z,5.97
2023-03-11T22:25:55.989Z,6.47
2023-03-11T22:30:59.090Z,4.97
2023-03-11T22:36:05.317Z,5.18
2023-03-11T22:41:08.501Z,8.40
2023-03-11T22:46:11.655Z,6.13
2023-03-11T22:51:14.546Z,6.40
2023-03-11T22:56:18.632Z,9.18
2023-03-11T23:01:21.621Z,9.60
2023-03-11T23:06:24.742Z,7.22
2023-03-11T23:11:27.774Z,9.75
2023-03-11T23:16:31.656Z,9.02
2023-03-11T23:21:35.838Z,8.85
2023-03-11T23:26:38.902Z,9.57
2023-03-11T23:31:41.857Z,8.10
2023-03-11T23:36:44.714Z,8.68
2023-03-11T23:41:47.565Z,11.95
2023-03-11T23:46:50.497Z,9.73
2023-03-11T23:51:54.198Z,8.20
2023-03-11T23:56:57.537Z,7.35
